sensor_id;sensor_type;location;lat;lon;timestamp;temperature;humidity
15819;DHT22;8010;53.986;12.106;2022-11-18T00:01:46;1.90;99.90
15819;DHT22;8010;53.986;12.106;2022-11-18T00:04:11;1.90;99.90
15819;DHT22;8010;53.986;12.106;2022-11-18T00:06:37;1.90;99.90
15819;DHT22;8010;53.986;12.106;2022-11-18T00:09:02;1.90;99.90
15819;DHT22;8010;53.986;12.106;2022-11-18T00:11:29;1.90;99.90
15819;DHT22;8010;53.986;12.106;2022-11-18T00:14:19;1.90;99.90
15819;DHT22;8010;53.986;12.106;2022-11-18T00:19:13;1.90;99.90
15819;DHT22;8010;53.986;12.106;2022-11-18T00:21:38;1.90;99.90
15819;DHT22;8010;53.986;12.106;2022-11-18T00:24:04;1.90;99.90
15819;DHT22;8010;53.986;12.106;2022-11-18T00:26:30;1.90;99.90
15819;DHT22;8010;53.986;12.106;2022-11-18T00:28:55;1.90;99.90
15819;DHT22;8010;53.986;12.106;2022-11-18T00:31:21;1.90;99.90
15819;DHT22;8010;53.986;12.106;2022-11-18T00:33:46;1.90;99.90
15819;DHT22;8010;53.986;12.106;2022-11-18T00:36:12;1.90;99.90
15819;DHT22;8010;53.986;12.106;2022-11-18T00:38:38;1.90;99.90
15819;DHT22;8010;53.986;12.106;2022-11-18T00:41:10;1.90;99.90
15819;DHT22;8010;53.986;12.106;2022-11-18T00:43:36;1.90;99.90
15819;DHT22;8010;53.986;12.106;2022-11-18T00:46:02;1.90;99.90
15819;DHT22;8010;53.986;12.106;2022-11-18T00:48:28;1.90;99.90
15819;DHT22;8010;53.986;12.106;2022-11-18T00:50:55;1.90;99.90
15819;DHT22;8010;53.986;12.106;2022-11-18T00:53:23;1.90;99.90
15819;DHT22;8010;53.986;12.106;2022-11-18T00:55:49;1.90;99.90
15819;DHT22;8010;53.986;12.106;2022-11-18T00:58:15;1.90;99.90
15819;DHT22;8010;53.986;12.106;2022-11-18T01:00:42;1.90;99.90
15819;DHT22;8010;53.986;12.106;2022-11-18T01:03:09;2.00;99.90
15819;DHT22;8010;53.986;12.106;2022-11-18T01:05:35;2.00;99.90
15819;DHT22;8010;53.986;12.106;2022-11-18T01:08:01;2.00;99.90
15819;DHT22;8010;53.986;12.106;2022-11-18T01:10:27;2.00;99.90
15819;DHT22;8010;53.986;12.106;2022-11-18T01:12:52;2.00;99.90
15819;DHT22;8010;53.986;12.106;2022-11-18T01:15:50;2.10;99.90
15819;DHT22;8010;53.986;12.106;2022-11-18T01:18:17;2.00;99.90
15819;DHT22;8010;53.986;12.106;2022-11-18T01:20:44;1.90;99.90
15819;DHT22;8010;53.986;12.106;2022-11-18T01:23:10;1.90;99.90
15819;DHT22;8010;53.986;12.106;2022-11-18T01:25:37;1.90;99.90
15819;DHT22;8010;53.986;12.106;2022-11-18T01:28:03;1.90;99.90
15819;DHT22;8010;53.986;12.106;2022-11-18T01:30:32;1.90;99.90
15819;DHT22;8010;53.986;12.106;2022-11-18T01:32:57;1.90;99.90
15819;DHT22;8010;53.986;12.106;2022-11-18T01:35:23;1.90;99.90
15819;DHT22;8010;53.986;12.106;2022-11-18T01:37:48;1.80;99.90
15819;DHT22;8010;53.986;12.106;2022-11-18T01:40:14;1.80;99.90
15819;DHT22;8010;53.986;12.106;2022-11-18T01:42:39;1.80;99.90
15819;DHT22;8010;53.986;12.106;2022-11-18T01:45:24;1.90;99.90
15819;DHT22;8010;53.986;12.106;2022-11-18T01:47:58;1.90;99.90
15819;DHT22;8010;53.986;12.106;2022-11-18T01:50:25;1.90;99.90
15819;DHT22;8010;53.986;12.106;2022-11-18T01:52:54;1.90;99.90
15819;DHT22;8010;53.986;12.106;2022-11-18T01:55:27;1.90;99.90
15819;DHT22;8010;53.986;12.106;2022-11-18T01:58:01;3.50;99.90
15819;DHT22;8010;53.986;12.106;2022-11-18T02:00:28;1.90;99.90
15819;DHT22;8010;53.986;12.106;2022-11-18T02:02:53;2.40;99.90
15819;DHT22;8010;53.986;12.106;2022-11-18T02:05:20;3.40;99.90
15819;DHT22;8010;53.986;12.106;2022-11-18T02:07:46;3.30;99.90
15819;DHT22;8010;53.986;12.106;2022-11-18T02:10:19;1.90;99.90
15819;DHT22;8010;53.986;12.106;2022-11-18T02:12:44;1.80;99.90
15819;DHT22;8010;53.986;12.106;2022-11-18T02:15:10;2.30;99.90
15819;DHT22;8010;53.986;12.106;2022-11-18T02:17:54;3.30;99.90
15819;DHT22;8010;53.986;12.106;2022-11-18T02:20:33;1.90;99.90
15819;DHT22;8010;53.986;12.106;2022-11-18T02:26:33;1.80;99.90
15819;DHT22;8010;53.986;12.106;2022-11-18T02:34:14;1.80;99.90
15819;DHT22;8010;53.986;12.106;2022-11-18T02:36:54;1.80;99.90
15819;DHT22;8010;53.986;12.106;2022-11-18T02:39:35;1.80;99.90
15819;DHT22;8010;53.986;12.106;2022-11-18T02:42:08;1.80;99.90
15819;DHT22;8010;53.986;12.106;2022-11-18T02:44:38;1.70;99.90
15819;DHT22;8010;53.986;12.106;2022-11-18T02:47:06;1.70;99.90
15819;DHT22;8010;53.986;12.106;2022-11-18T02:49:54;1.70;99.90
15819;DHT22;8010;53.986;12.106;2022-11-18T02:52:22;1.70;99.90
15819;DHT22;8010;53.986;12.106;2022-11-18T02:54:49;1.70;99.90
15819;DHT22;8010;53.986;12.106;2022-11-18T02:57:16;1.60;99.90
15819;DHT22;8010;53.986;12.106;2022-11-18T02:59:43;1.60;99.90
15819;DHT22;8010;53.986;12.106;2022-11-18T03:02:14;1.60;99.90
15819;DHT22;8010;53.986;12.106;2022-11-18T03:04:40;1.60;99.90
15819;DHT22;8010;53.986;12.106;2022-11-18T03:09:51;1.50;99.90
15819;DHT22;8010;53.986;12.106;2022-11-18T03:15:27;1.30;99.90
15819;DHT22;8010;53.986;12.106;2022-11-18T03:23:14;0.90;99.90
15819;DHT22;8010;53.986;12.106;2022-11-18T03:25:52;0.90;99.90
15819;DHT22;8010;53.986;12.106;2022-11-18T03:28:24;0.70;99.90
15819;DHT22;8010;53.986;12.106;2022-11-18T03:31:12;0.70;99.90
15819;DHT22;8010;53.986;12.106;2022-11-18T03:33:46;0.60;99.90
15819;DHT22;8010;53.986;12.106;2022-11-18T03:36:15;1.10;99.90
15819;DHT22;8010;53.986;12.106;2022-11-18T03:38:50;0.50;99.90
15819;DHT22;8010;53.986;12.106;2022-11-18T03:41:17;0.60;99.90
15819;DHT22;8010;53.986;12.106;2022-11-18T03:44:01;0.60;99.90
15819;DHT22;8010;53.986;12.106;2022-11-18T03:46:58;0.40;99.90
15819;DHT22;8010;53.986;12.106;2022-11-18T03:52:34;0.30;99.90
15819;DHT22;8010;53.986;12.106;2022-11-18T03:55:08;0.50;99.90
15819;DHT22;8010;53.986;12.106;2022-11-18T04:00:15;0.20;99.90
15819;DHT22;8010;53.986;12.106;2022-11-18T04:02:41;0.20;99.90
15819;DHT22;8010;53.986;12.106;2022-11-18T04:05:09;0.30;99.90
15819;DHT22;8010;53.986;12.106;2022-11-18T04:07:55;0.50;99.90
15819;DHT22;8010;53.986;12.106;2022-11-18T04:10:29;0.10;99.90
15819;DHT22;8010;53.986;12.106;2022-11-18T04:15:31;-0.10;99.90
15819;DHT22;8010;53.986;12.106;2022-11-18T04:17:57;-0.10;99.90
15819;DHT22;8010;53.986;12.106;2022-11-18T04:20:23;-0.10;99.90
15819;DHT22;8010;53.986;12.106;2022-11-18T04:22:49;-0.10;99.90
15819;DHT22;8010;53.986;12.106;2022-11-18T04:25:14;-0.10;99.90
15819;DHT22;8010;53.986;12.106;2022-11-18T04:27:40;-0.10;99.90
15819;DHT22;8010;53.986;12.106;2022-11-18T04:30:06;1.40;99.90
15819;DHT22;8010;53.986;12.106;2022-11-18T04:32:32;-0.10;99.90
15819;DHT22;8010;53.986;12.106;2022-11-18T04:34:58;-0.10;99.90
15819;DHT22;8010;53.986;12.106;2022-11-18T04:37:24;-0.10;99.90
15819;DHT22;8010;53.986;12.106;2022-11-18T04:39:49;0.10;99.90
15819;DHT22;8010;53.986;12.106;2022-11-18T04:42:15;-0.10;99.90
15819;DHT22;8010;53.986;12.106;2022-11-18T04:44:40;1.40;99.90
15819;DHT22;8010;53.986;12.106;2022-11-18T04:47:06;-0.10;99.90
15819;DHT22;8010;53.986;12.106;2022-11-18T04:49:33;-0.10;99.90
15819;DHT22;8010;53.986;12.106;2022-11-18T04:52:00;0.10;99.90
15819;DHT22;8010;53.986;12.106;2022-11-18T04:54:26;0.00;99.90
15819;DHT22;8010;53.986;12.106;2022-11-18T04:56:53;1.30;99.90
15819;DHT22;8010;53.986;12.106;2022-11-18T04:59:24;0.80;99.90
15819;DHT22;8010;53.986;12.106;2022-11-18T05:01:49;0.00;99.90
15819;DHT22;8010;53.986;12.106;2022-11-18T05:04:18;1.20;99.90
15819;DHT22;8010;53.986;12.106;2022-11-18T05:06:44;0.00;99.90
15819;DHT22;8010;53.986;12.106;2022-11-18T05:09:10;0.00;99.90
15819;DHT22;8010;53.986;12.106;2022-11-18T05:11:35;0.50;99.90
15819;DHT22;8010;53.986;12.106;2022-11-18T05:14:39;1.10;99.90
15819;DHT22;8010;53.986;12.106;2022-11-18T05:17:07;0.00;99.90
15819;DHT22;8010;53.986;12.106;2022-11-18T05:19:32;1.10;99.90
15819;DHT22;8010;53.986;12.106;2022-11-18T05:21:58;0.70;99.90
15819;DHT22;8010;53.986;12.106;2022-11-18T05:24:24;0.00;99.90
15819;DHT22;8010;53.986;12.106;2022-11-18T05:26:51;1.10;99.90
15819;DHT22;8010;53.986;12.106;2022-11-18T05:29:17;0.70;99.90
15819;DHT22;8010;53.986;12.106;2022-11-18T05:31:44;1.90;99.90
15819;DHT22;8010;53.986;12.106;2022-11-18T05:34:10;-0.10;99.90
15819;DHT22;8010;53.986;12.106;2022-11-18T05:36:35;-0.10;99.90
15819;DHT22;8010;53.986;12.106;2022-11-18T05:39:01;-0.10;99.90
15819;DHT22;8010;53.986;12.106;2022-11-18T05:41:26;-0.20;99.90
15819;DHT22;8010;53.986;12.106;2022-11-18T05:44:10;-0.20;99.90
15819;DHT22;8010;53.986;12.106;2022-11-18T05:46:36;-0.10;99.90
15819;DHT22;8010;53.986;12.106;2022-11-18T05:49:02;-0.10;99.90
15819;DHT22;8010;53.986;12.106;2022-11-18T05:51:27;-0.20;99.90
15819;DHT22;8010;53.986;12.106;2022-11-18T05:53:54;-0.20;99.90
15819;DHT22;8010;53.986;12.106;2022-11-18T05:56:33;-0.20;99.90
15819;DHT22;8010;53.986;12.106;2022-11-18T05:58:59;-0.20;99.90
15819;DHT22;8010;53.986;12.106;2022-11-18T06:01:46;-0.30;99.90
15819;DHT22;8010;53.986;12.106;2022-11-18T06:04:28;-0.30;99.90
15819;DHT22;8010;53.986;12.106;2022-11-18T06:07:06;-0.30;99.90
15819;DHT22;8010;53.986;12.106;2022-11-18T06:09:36;-0.40;99.90
15819;DHT22;8010;53.986;12.106;2022-11-18T06:12:04;-0.40;99.90
15819;DHT22;8010;53.986;12.106;2022-11-18T06:14:54;-0.40;99.90
15819;DHT22;8010;53.986;12.106;2022-11-18T06:17:41;-0.50;99.90
15819;DHT22;8010;53.986;12.106;2022-11-18T06:20:08;-0.50;99.90
15819;DHT22;8010;53.986;12.106;2022-11-18T06:22:34;-0.50;99.90
15819;DHT22;8010;53.986;12.106;2022-11-18T06:25:00;1.30;99.90
15819;DHT22;8010;53.986;12.106;2022-11-18T06:27:27;1.10;99.90
15819;DHT22;8010;53.986;12.106;2022-11-18T06:29:53;-0.40;99.90
15819;DHT22;8010;53.986;12.106;2022-11-18T06:32:18;-0.40;99.90
15819;DHT22;8010;53.986;12.106;2022-11-18T06:34:44;0.30;99.90
15819;DHT22;8010;53.986;12.106;2022-11-18T06:37:17;-0.40;99.90
15819;DHT22;8010;53.986;12.106;2022-11-18T06:39:44;0.30;99.90
15819;DHT22;8010;53.986;12.106;2022-11-18T06:42:10;0.20;99.90
15819;DHT22;8010;53.986;12.106;2022-11-18T06:44:56;0.50;99.90
15819;DHT22;8010;53.986;12.106;2022-11-18T06:47:21;-0.40;99.90
15819;DHT22;8010;53.986;12.106;2022-11-18T06:49:47;-0.40;99.90
15819;DHT22;8010;53.986;12.106;2022-11-18T06:52:12;-0.40;99.90
15819;DHT22;8010;53.986;12.106;2022-11-18T06:54:38;-0.40;99.90
15819;DHT22;8010;53.986;12.106;2022-11-18T06:57:04;-0.40;99.90
15819;DHT22;8010;53.986;12.106;2022-11-18T06:59:29;-0.10;99.90
15819;DHT22;8010;53.986;12.106;2022-11-18T07:01:55;-0.40;99.90
15819;DHT22;8010;53.986;12.106;2022-11-18T07:04:21;-0.40;99.90
15819;DHT22;8010;53.986;12.106;2022-11-18T07:06:47;1.00;99.90
15819;DHT22;8010;53.986;12.106;2022-11-18T07:09:12;-0.30;99.90
15819;DHT22;8010;53.986;12.106;2022-11-18T07:11:38;0.00;99.90
15819;DHT22;8010;53.986;12.106;2022-11-18T07:14:06;-0.40;99.90
15819;DHT22;8010;53.986;12.106;2022-11-18T07:16:33;0.80;99.90
15819;DHT22;8010;53.986;12.106;2022-11-18T07:18:59;-0.30;99.90
15819;DHT22;8010;53.986;12.106;2022-11-18T07:21:26;-0.30;99.90
15819;DHT22;8010;53.986;12.106;2022-11-18T07:23:53;-0.10;99.90
15819;DHT22;8010;53.986;12.106;2022-11-18T07:26:19;-0.30;99.90
15819;DHT22;8010;53.986;12.106;2022-11-18T07:28:45;-0.30;99.90
15819;DHT22;8010;53.986;12.106;2022-11-18T07:31:18;0.80;99.90
15819;DHT22;8010;53.986;12.106;2022-11-18T07:33:45;-0.20;99.90
15819;DHT22;8010;53.986;12.106;2022-11-18T07:36:16;-0.20;99.90
15819;DHT22;8010;53.986;12.106;2022-11-18T07:38:42;-0.10;99.90
15819;DHT22;8010;53.986;12.106;2022-11-18T07:41:13;0.10;99.90
15819;DHT22;8010;53.986;12.106;2022-11-18T07:43:39;-0.10;99.90
15819;DHT22;8010;53.986;12.106;2022-11-18T07:46:17;0.60;99.90
15819;DHT22;8010;53.986;12.106;2022-11-18T07:48:45;0.60;99.90
15819;DHT22;8010;53.986;12.106;2022-11-18T07:51:12;0.10;99.90
15819;DHT22;8010;53.986;12.106;2022-11-18T07:53:38;0.10;99.90
15819;DHT22;8010;53.986;12.106;2022-11-18T07:56:05;0.20;99.90
15819;DHT22;8010;53.986;12.106;2022-11-18T07:58:31;0.30;99.90
15819;DHT22;8010;53.986;12.106;2022-11-18T08:00:57;0.30;99.90
15819;DHT22;8010;53.986;12.106;2022-11-18T08:03:26;0.40;99.90
15819;DHT22;8010;53.986;12.106;2022-11-18T08:05:57;0.60;99.90
15819;DHT22;8010;53.986;12.106;2022-11-18T08:08:22;0.70;99.90
15819;DHT22;8010;53.986;12.106;2022-11-18T08:10:48;0.80;99.90
15819;DHT22;8010;53.986;12.106;2022-11-18T08:13:13;1.00;99.90
15819;DHT22;8010;53.986;12.106;2022-11-18T08:15:40;1.10;99.90
15819;DHT22;8010;53.986;12.106;2022-11-18T08:18:06;1.40;99.90
15819;DHT22;8010;53.986;12.106;2022-11-18T08:20:33;1.50;99.90
15819;DHT22;8010;53.986;12.106;2022-11-18T08:22:59;1.70;99.90
15819;DHT22;8010;53.986;12.106;2022-11-18T08:25:25;1.90;99.90
15819;DHT22;8010;53.986;12.106;2022-11-18T08:27:54;2.00;99.90
15819;DHT22;8010;53.986;12.106;2022-11-18T08:30:23;2.10;99.90
15819;DHT22;8010;53.986;12.106;2022-11-18T08:32:50;2.30;99.90
15819;DHT22;8010;53.986;12.106;2022-11-18T08:35:15;2.40;99.90
15819;DHT22;8010;53.986;12.106;2022-11-18T08:37:41;2.50;99.90
15819;DHT22;8010;53.986;12.106;2022-11-18T08:40:07;2.70;99.90
15819;DHT22;8010;53.986;12.106;2022-11-18T08:42:34;2.80;99.90
15819;DHT22;8010;53.986;12.106;2022-11-18T08:44:59;2.90;99.90
15819;DHT22;8010;53.986;12.106;2022-11-18T08:47:25;3.00;99.90
15819;DHT22;8010;53.986;12.106;2022-11-18T08:49:50;3.20;99.90
15819;DHT22;8010;53.986;12.106;2022-11-18T08:52:16;3.30;99.90
15819;DHT22;8010;53.986;12.106;2022-11-18T08:54:42;3.40;99.90
15819;DHT22;8010;53.986;12.106;2022-11-18T08:57:07;3.60;99.90
15819;DHT22;8010;53.986;12.106;2022-11-18T08:59:33;3.70;99.90
15819;DHT22;8010;53.986;12.106;2022-11-18T09:01:58;3.80;99.90
15819;DHT22;8010;53.986;12.106;2022-11-18T09:04:24;3.90;99.90
15819;DHT22;8010;53.986;12.106;2022-11-18T09:06:50;4.00;99.90
15819;DHT22;8010;53.986;12.106;2022-11-18T09:09:15;4.10;99.90
15819;DHT22;8010;53.986;12.106;2022-11-18T09:11:41;4.20;99.90
15819;DHT22;8010;53.986;12.106;2022-11-18T09:14:09;4.20;99.90
15819;DHT22;8010;53.986;12.106;2022-11-18T09:16:35;4.30;99.90
15819;DHT22;8010;53.986;12.106;2022-11-18T09:19:01;4.40;99.90
15819;DHT22;8010;53.986;12.106;2022-11-18T09:21:27;4.50;99.90
15819;DHT22;8010;53.986;12.106;2022-11-18T09:23:53;4.60;99.90
15819;DHT22;8010;53.986;12.106;2022-11-18T09:26:20;4.70;99.90
15819;DHT22;8010;53.986;12.106;2022-11-18T09:28:47;4.70;99.90
15819;DHT22;8010;53.986;12.106;2022-11-18T09:31:14;4.80;99.90
15819;DHT22;8010;53.986;12.106;2022-11-18T09:33:40;4.90;99.90
15819;DHT22;8010;53.986;12.106;2022-11-18T09:36:15;4.90;99.90
15819;DHT22;8010;53.986;12.106;2022-11-18T09:38:41;4.80;99.90
15819;DHT22;8010;53.986;12.106;2022-11-18T09:41:39;4.80;99.90
15819;DHT22;8010;53.986;12.106;2022-11-18T09:49:36;4.70;99.90
15819;DHT22;8010;53.986;12.106;2022-11-18T09:52:08;4.70;99.90
15819;DHT22;8010;53.986;12.106;2022-11-18T09:54:36;4.80;99.90
15819;DHT22;8010;53.986;12.106;2022-11-18T09:57:34;4.80;99.90
15819;DHT22;8010;53.986;12.106;2022-11-18T09:59:55;4.90;99.90
15819;DHT22;8010;53.986;12.106;2022-11-18T10:02:46;4.90;99.90
15819;DHT22;8010;53.986;12.106;2022-11-18T10:05:19;5.00;99.90
15819;DHT22;8010;53.986;12.106;2022-11-18T10:19:15;5.40;99.90
15819;DHT22;8010;53.986;12.106;2022-11-18T10:24:52;5.50;99.90
15819;DHT22;8010;53.986;12.106;2022-11-18T10:27:18;5.50;99.90
15819;DHT22;8010;53.986;12.106;2022-11-18T10:29:47;5.60;99.90
15819;DHT22;8010;53.986;12.106;2022-11-18T10:32:17;5.60;99.90
15819;DHT22;8010;53.986;12.106;2022-11-18T10:34:55;5.70;99.90
15819;DHT22;8010;53.986;12.106;2022-11-18T10:37:31;5.90;99.90
15819;DHT22;8010;53.986;12.106;2022-11-18T10:39:59;6.00;99.90
15819;DHT22;8010;53.986;12.106;2022-11-18T10:42:40;6.10;99.90
15819;DHT22;8010;53.986;12.106;2022-11-18T10:48:16;6.30;99.90
15819;DHT22;8010;53.986;12.106;2022-11-18T10:50:47;6.40;99.90
15819;DHT22;8010;53.986;12.106;2022-11-18T10:53:31;6.40;99.90
15819;DHT22;8010;53.986;12.106;2022-11-18T10:56:02;6.40;99.90
15819;DHT22;8010;53.986;12.106;2022-11-18T10:58:30;6.50;99.90
15819;DHT22;8010;53.986;12.106;2022-11-18T11:01:06;6.60;99.90
15819;DHT22;8010;53.986;12.106;2022-11-18T11:03:37;6.90;99.90
15819;DHT22;8010;53.986;12.106;2022-11-18T11:06:20;6.90;99.90
15819;DHT22;8010;53.986;12.106;2022-11-18T11:08:49;7.10;99.90
15819;DHT22;8010;53.986;12.106;2022-11-18T11:11:26;7.40;99.90
15819;DHT22;8010;53.986;12.106;2022-11-18T11:13:57;7.60;99.90
15819;DHT22;8010;53.986;12.106;2022-11-18T11:16:26;7.70;99.90
15819;DHT22;8010;53.986;12.106;2022-11-18T11:18:57;7.90;99.90
15819;DHT22;8010;53.986;12.106;2022-11-18T11:21:25;8.00;99.90
15819;DHT22;8010;53.986;12.106;2022-11-18T11:23:54;7.90;99.90
15819;DHT22;8010;53.986;12.106;2022-11-18T11:26:42;7.90;99.90
15819;DHT22;8010;53.986;12.106;2022-11-18T11:32:10;7.90;99.90
15819;DHT22;8010;53.986;12.106;2022-11-18T11:37:46;7.90;99.90
15819;DHT22;8010;53.986;12.106;2022-11-18T11:40:40;8.10;99.90
15819;DHT22;8010;53.986;12.106;2022-11-18T11:43:30;8.50;99.90
15819;DHT22;8010;53.986;12.106;2022-11-18T11:46:30;8.80;99.90
15819;DHT22;8010;53.986;12.106;2022-11-18T11:49:09;9.10;99.90
15819;DHT22;8010;53.986;12.106;2022-11-18T11:51:52;9.00;99.90
15819;DHT22;8010;53.986;12.106;2022-11-18T12:00:46;8.90;99.90
15819;DHT22;8010;53.986;12.106;2022-11-18T12:03:32;8.90;99.90
15819;DHT22;8010;53.986;12.106;2022-11-18T12:06:01;9.10;99.90
15819;DHT22;8010;53.986;12.106;2022-11-18T12:08:31;9.10;99.90
15819;DHT22;8010;53.986;12.106;2022-11-18T12:11:25;9.00;99.90
15819;DHT22;8010;53.986;12.106;2022-11-18T12:14:10;9.10;99.90
15819;DHT22;8010;53.986;12.106;2022-11-18T12:19:14;9.30;99.90
15819;DHT22;8010;53.986;12.106;2022-11-18T12:24:25;9.60;99.90
15819;DHT22;8010;53.986;12.106;2022-11-18T12:26:56;9.70;99.90
15819;DHT22;8010;53.986;12.106;2022-11-18T12:29:24;9.60;99.90
15819;DHT22;8010;53.986;12.106;2022-11-18T12:31:57;9.70;99.90
15819;DHT22;8010;53.986;12.106;2022-11-18T12:39:58;10.00;99.90
15819;DHT22;8010;53.986;12.106;2022-11-18T12:42:45;10.00;99.90
15819;DHT22;8010;53.986;12.106;2022-11-18T12:48:28;10.50;99.90
15819;DHT22;8010;53.986;12.106;2022-11-18T12:50:56;10.80;99.90
15819;DHT22;8010;53.986;12.106;2022-11-18T12:53:36;11.10;99.90
15819;DHT22;8010;53.986;12.106;2022-11-18T12:56:33;11.10;99.90
15819;DHT22;8010;53.986;12.106;2022-11-18T12:59:01;10.90;99.90
15819;DHT22;8010;53.986;12.106;2022-11-18T13:01:29;10.90;99.90
15819;DHT22;8010;53.986;12.106;2022-11-18T13:04:16;10.60;99.90
15819;DHT22;8010;53.986;12.106;2022-11-18T13:06:44;10.70;99.90
15819;DHT22;8010;53.986;12.106;2022-11-18T13:09:19;10.60;99.90
15819;DHT22;8010;53.986;12.106;2022-11-18T13:11:54;10.70;99.90
15819;DHT22;8010;53.986;12.106;2022-11-18T13:14:24;10.90;99.90
15819;DHT22;8010;53.986;12.106;2022-11-18T13:22:54;10.70;99.90
15819;DHT22;8010;53.986;12.106;2022-11-18T13:25:39;9.90;99.90
15819;DHT22;8010;53.986;12.106;2022-11-18T13:28:25;9.10;99.90
15819;DHT22;8010;53.986;12.106;2022-11-18T13:33:37;8.00;99.90
15819;DHT22;8010;53.986;12.106;2022-11-18T13:36:18;7.60;99.90
15819;DHT22;8010;53.986;12.106;2022-11-18T13:39:04;7.40;99.90
15819;DHT22;8010;53.986;12.106;2022-11-18T13:41:32;7.20;99.90
15819;DHT22;8010;53.986;12.106;2022-11-18T13:44:19;7.00;99.90
15819;DHT22;8010;53.986;12.106;2022-11-18T13:46:50;6.90;99.90
15819;DHT22;8010;53.986;12.106;2022-11-18T13:49:26;6.80;99.90
15819;DHT22;8010;53.986;12.106;2022-11-18T13:51:54;6.70;99.90
15819;DHT22;8010;53.986;12.106;2022-11-18T13:54:23;6.60;99.90
15819;DHT22;8010;53.986;12.106;2022-11-18T13:56:50;6.50;99.90
15819;DHT22;8010;53.986;12.106;2022-11-18T13:59:21;6.40;99.90
15819;DHT22;8010;53.986;12.106;2022-11-18T14:01:54;6.30;99.90
15819;DHT22;8010;53.986;12.106;2022-11-18T14:04:23;6.10;99.90
15819;DHT22;8010;53.986;12.106;2022-11-18T14:06:50;6.10;99.90
15819;DHT22;8010;53.986;12.106;2022-11-18T14:14:40;5.80;99.90
15819;DHT22;8010;53.986;12.106;2022-11-18T14:17:26;5.80;99.90
15819;DHT22;8010;53.986;12.106;2022-11-18T14:20:06;5.70;99.90
15819;DHT22;8010;53.986;12.106;2022-11-18T14:22:34;5.70;99.90
15819;DHT22;8010;53.986;12.106;2022-11-18T14:27:51;5.50;99.90
15819;DHT22;8010;53.986;12.106;2022-11-18T14:30:35;5.50;99.90
15819;DHT22;8010;53.986;12.106;2022-11-18T14:33:23;5.40;99.90
15819;DHT22;8010;53.986;12.106;2022-11-18T14:35:51;5.50;99.90
15819;DHT22;8010;53.986;12.106;2022-11-18T14:38:42;5.40;99.90
15819;DHT22;8010;53.986;12.106;2022-11-18T14:41:07;5.30;99.90
15819;DHT22;8010;53.986;12.106;2022-11-18T14:43:33;5.30;99.90
15819;DHT22;8010;53.986;12.106;2022-11-18T14:46:02;5.20;99.90
15819;DHT22;8010;53.986;12.106;2022-11-18T14:48:29;5.10;99.90
15819;DHT22;8010;53.986;12.106;2022-11-18T14:50:56;5.00;99.90
15819;DHT22;8010;53.986;12.106;2022-11-18T14:53:22;4.90;99.90
15819;DHT22;8010;53.986;12.106;2022-11-18T14:55:50;4.80;99.90
15819;DHT22;8010;53.986;12.106;2022-11-18T14:58:16;4.80;99.90
15819;DHT22;8010;53.986;12.106;2022-11-18T15:00:43;4.80;99.90
15819;DHT22;8010;53.986;12.106;2022-11-18T15:03:09;4.70;99.90
15819;DHT22;8010;53.986;12.106;2022-11-18T15:05:35;4.70;99.90
15819;DHT22;8010;53.986;12.106;2022-11-18T15:08:01;4.70;99.90
15819;DHT22;8010;53.986;12.106;2022-11-18T15:10:26;4.70;99.90
15819;DHT22;8010;53.986;12.106;2022-11-18T15:12:52;4.60;99.90
15819;DHT22;8010;53.986;12.106;2022-11-18T15:15:17;4.60;99.90
15819;DHT22;8010;53.986;12.106;2022-11-18T15:17:43;4.60;99.90
15819;DHT22;8010;53.986;12.106;2022-11-18T15:20:15;4.50;99.90
15819;DHT22;8010;53.986;12.106;2022-11-18T15:22:40;4.50;99.90
15819;DHT22;8010;53.986;12.106;2022-11-18T15:25:07;4.40;99.90
15819;DHT22;8010;53.986;12.106;2022-11-18T15:27:33;4.40;99.90
15819;DHT22;8010;53.986;12.106;2022-11-18T15:29:58;4.20;99.90
15819;DHT22;8010;53.986;12.106;2022-11-18T15:32:24;4.20;99.90
15819;DHT22;8010;53.986;12.106;2022-11-18T15:34:49;3.90;99.90
15819;DHT22;8010;53.986;12.106;2022-11-18T15:37:15;3.80;99.90
15819;DHT22;8010;53.986;12.106;2022-11-18T15:39:41;3.60;99.90
15819;DHT22;8010;53.986;12.106;2022-11-18T15:42:06;3.50;99.90
15819;DHT22;8010;53.986;12.106;2022-11-18T15:44:32;3.40;99.90
15819;DHT22;8010;53.986;12.106;2022-11-18T15:46:57;3.30;99.90
15819;DHT22;8010;53.986;12.106;2022-11-18T15:49:24;3.20;99.90
15819;DHT22;8010;53.986;12.106;2022-11-18T15:51:50;3.20;99.90
15819;DHT22;8010;53.986;12.106;2022-11-18T15:54:15;3.10;99.90
15819;DHT22;8010;53.986;12.106;2022-11-18T15:56:41;3.00;99.90
15819;DHT22;8010;53.986;12.106;2022-11-18T15:59:09;2.90;99.90
15819;DHT22;8010;53.986;12.106;2022-11-18T16:01:37;2.80;99.90
15819;DHT22;8010;53.986;12.106;2022-11-18T16:04:06;2.70;99.90
15819;DHT22;8010;53.986;12.106;2022-11-18T16:06:32;2.60;99.90
15819;DHT22;8010;53.986;12.106;2022-11-18T16:08:58;2.60;99.90
15819;DHT22;8010;53.986;12.106;2022-11-18T16:11:23;2.50;99.90
15819;DHT22;8010;53.986;12.106;2022-11-18T16:14:09;2.50;99.90
15819;DHT22;8010;53.986;12.106;2022-11-18T16:16:37;2.40;99.90
15819;DHT22;8010;53.986;12.106;2022-11-18T16:19:07;2.40;99.90
15819;DHT22;8010;53.986;12.106;2022-11-18T16:21:35;2.30;99.90
15819;DHT22;8010;53.986;12.106;2022-11-18T16:24:03;2.20;99.90
15819;DHT22;8010;53.986;12.106;2022-11-18T16:26:29;2.20;99.90
15819;DHT22;8010;53.986;12.106;2022-11-18T16:28:56;2.20;99.90
15819;DHT22;8010;53.986;12.106;2022-11-18T16:31:22;2.30;99.90
15819;DHT22;8010;53.986;12.106;2022-11-18T16:36:31;2.30;99.90
15819;DHT22;8010;53.986;12.106;2022-11-18T16:38:57;2.30;99.90
15819;DHT22;8010;53.986;12.106;2022-11-18T16:41:22;2.20;99.90
15819;DHT22;8010;53.986;12.106;2022-11-18T16:44:02;2.20;99.90
15819;DHT22;8010;53.986;12.106;2022-11-18T16:46:29;2.10;99.90
15819;DHT22;8010;53.986;12.106;2022-11-18T16:48:55;2.00;99.90
15819;DHT22;8010;53.986;12.106;2022-11-18T16:51:28;2.00;99.90
15819;DHT22;8010;53.986;12.106;2022-11-18T16:54:03;1.90;99.90
15819;DHT22;8010;53.986;12.106;2022-11-18T16:56:31;1.90;99.90
15819;DHT22;8010;53.986;12.106;2022-11-18T16:59:03;1.80;99.90
15819;DHT22;8010;53.986;12.106;2022-11-18T17:01:29;1.70;99.90
15819;DHT22;8010;53.986;12.106;2022-11-18T17:03:56;1.70;99.90
15819;DHT22;8010;53.986;12.106;2022-11-18T17:06:23;1.60;99.90
15819;DHT22;8010;53.986;12.106;2022-11-18T17:08:49;1.50;99.90
15819;DHT22;8010;53.986;12.106;2022-11-18T17:11:15;1.50;99.90
15819;DHT22;8010;53.986;12.106;2022-11-18T17:13:41;1.40;99.90
15819;DHT22;8010;53.986;12.106;2022-11-18T17:16:08;1.40;99.90
15819;DHT22;8010;53.986;12.106;2022-11-18T17:18:35;1.30;99.90
15819;DHT22;8010;53.986;12.106;2022-11-18T17:21:11;1.30;99.90
15819;DHT22;8010;53.986;12.106;2022-11-18T17:23:38;1.30;99.90
15819;DHT22;8010;53.986;12.106;2022-11-18T17:26:05;1.20;99.90
15819;DHT22;8010;53.986;12.106;2022-11-18T17:28:32;1.20;99.90
15819;DHT22;8010;53.986;12.106;2022-11-18T17:31:24;1.20;99.90
15819;DHT22;8010;53.986;12.106;2022-11-18T17:33:51;1.20;99.90
15819;DHT22;8010;53.986;12.106;2022-11-18T17:36:19;1.20;99.90
15819;DHT22;8010;53.986;12.106;2022-11-18T17:38:47;1.10;99.90
15819;DHT22;8010;53.986;12.106;2022-11-18T17:41:15;1.10;99.90